Jonesboro Municipal Airport
KJBR : rendu visible

Aérodrome :











RETROUVEZ-NOUS SUR...

 
LOGIN :

S'inscrire | Disclaimer

   EN    FR    IT 

 









Légende :    VFR   VFR Marginal   IFR   IFR Intensif   IFR Très Intensif
Visi : 
Plafond : 
>= 8 km
>= 3000ft
5 à 8 km
1000 à 3000 ft
1500m à 5 km
500 à 1000 ft
800 à 1500m
200 à 500 ft
< 800m
< 200 ft
Symboles :   Orages  Brouillard  Fortes neiges  Fortes précipitations  Vent > 20 kt






- Altitude de l'aérodrome : 262 ft
- Code IATA : JBR


KJBR - Jonesboro Municipal

DERNIER METAR :
  • 162253Z AUTO 05005KT 10SM CLR 09/03 A3017 RMK AO2 SLP216 T00890028

METARs EXPIRÉS :
  • 162153Z AUTO 06008KT 10SM CLR 11/02 A3018 RMK AO2 SLP220 T01110017
  • 162053Z AUTO 09007KT 10SM CLR 12/01 A3019 RMK AO2 SLP223 T01170011 56028

TAF KJBR
Valide du 17 à 00h jusqu'au 18 à 00h UTC


162329Z 1700/1724 VRB02KT P6SM SKC
FM171700 22007KT P6SM SKC



MET'MAP, la Météo Aéronautique d'un coup d'oeil ! - Copyright ORBIFLY Décembre 2007 - Disclaimer

ORBIFLY MET'MAP TEAM :

Programmation & Développement : Alexandra Zaïnal
Conception & Développement : Baudouin d'Aumeries
Co-Programmation & Développement : Marc-Olivier Méhu
Soutien technique & logistique : Manuel Goepfert

Contact : metmap@orbifly.com




SOURCES & CREDITS :

   NOAA       Earth
Advisory